Time,TemperatureF,DewpointF,PressureIn,WindDirection,WindDirectionDegrees,WindSpeedMPH,WindSpeedGustMPH,Humidity,HourlyPrecipIn,Conditions,Clouds,dailyrainin,SoftwareType,DateUTC
2013-02-05 00:02:00,22.0,22.0,-100.00,NE,40,4.0,6.0,99,-99.99,,,-99.99,,2013-02-05 05:02:00,
2013-02-05 00:11:00,22.0,22.0,-100.00,NE,35,4.0,6.0,99,-99.99,,,-99.99,,2013-02-05 05:11:00,
2013-02-05 00:22:00,22.0,22.0,-100.00,North,5,4.0,7.0,99,-99.99,,,-99.99,,2013-02-05 05:22:00,
2013-02-05 00:32:00,22.0,22.0,-100.00,North,0,5.0,7.0,99,-99.99,,,-99.99,,2013-02-05 05:32:00,
2013-02-05 00:42:00,22.0,22.0,-100.00,North,350,4.0,6.0,99,-99.99,,,-99.99,,2013-02-05 05:42:00,
2013-02-05 00:52:00,22.0,22.0,-100.00,NNE,20,3.0,6.0,99,-99.99,,,-99.99,,2013-02-05 05:52:00,
2013-02-05 01:02:00,22.0,22.0,-100.00,NNE,20,3.0,6.0,99,-99.99,,,-99.99,,2013-02-05 06:02:00,
2013-02-05 01:11:00,22.0,22.0,-100.00,North,5,2.0,4.0,99,-99.99,,,-99.99,,2013-02-05 06:11:00,
2013-02-05 01:21:00,21.0,21.0,-100.00,NE,35,4.0,6.0,99,-99.99,,,-99.99,,2013-02-05 06:21:00,
2013-02-05 01:32:00,21.0,21.0,-100.00,NNE,25,2.0,5.0,99,-99.99,,,-99.99,,2013-02-05 06:32:00,
2013-02-05 01:42:00,21.0,21.0,-100.00,NNE,25,2.0,5.0,99,-99.99,,,-99.99,,2013-02-05 06:42:00,
2013-02-05 01:51:00,21.0,21.0,-100.00,NE,35,2.0,5.0,99,-99.99,,,-99.99,,2013-02-05 06:51:00,
2013-02-05 02:01:00,21.0,21.0,-100.00,NNE,30,3.0,5.0,99,-99.99,,,-99.99,,2013-02-05 07:01:00,
2013-02-05 02:11:00,21.0,21.0,-100.00,NNE,30,3.0,5.0,99,-99.99,,,-99.99,,2013-02-05 07:11:00,
2013-02-05 02:22:00,21.0,21.0,-100.00,NE,40,2.0,3.0,99,-99.99,,,-99.99,,2013-02-05 07:22:00,
2013-02-05 02:32:00,21.0,21.0,-100.00,NE,45,2.0,4.0,99,-99.99,,,-99.99,,2013-02-05 07:32:00,
2013-02-05 02:42:00,21.0,21.0,-100.00,ENE,65,1.0,3.0,99,-99.99,,,-99.99,,2013-02-05 07:42:00,
2013-02-05 02:52:00,21.0,21.0,-100.00,ENE,75,1.0,4.0,99,-99.99,,,-99.99,,2013-02-05 07:52:00,
2013-02-05 03:01:00,21.0,21.0,-100.00,SSE,165,1.0,3.0,99,-99.99,,,-99.99,,2013-02-05 08:01:00,
2013-02-05 03:11:00,21.0,21.0,-100.00,ESE,105,1.0,2.0,99,-99.99,,,-99.99,,2013-02-05 08:11:00,
2013-02-05 03:21:00,21.0,21.0,-100.00,ESE,115,1.0,3.0,99,-99.99,,,-99.99,,2013-02-05 08:21:00,
2013-02-05 03:32:00,21.0,21.0,-100.00,North,5,4.0,4.0,99,-99.99,,,-99.99,,2013-02-05 08:32:00,
2013-02-05 03:42:00,21.0,21.0,-100.00,NNW,340,3.0,4.0,99,-99.99,,,-99.99,,2013-02-05 08:42:00,
2013-02-05 03:52:00,20.0,20.0,-100.00,North,355,3.0,5.0,99,-99.99,,,-99.99,,2013-02-05 08:52:00,
2013-02-05 04:02:00,20.0,20.0,-100.00,North,350,2.0,3.0,99,-99.99,,,-99.99,,2013-02-05 09:02:00,
2013-02-05 04:11:00,20.0,20.0,-100.00,North,350,2.0,3.0,99,-99.99,,,-99.99,,2013-02-05 09:11:00,
2013-02-05 04:21:00,20.0,20.0,-100.00,North,355,2.0,2.0,99,-99.99,,,-99.99,,2013-02-05 09:21:00,
2013-02-05 04:32:00,20.0,20.0,-100.00,North,355,2.0,2.0,99,-99.99,,,-99.99,,2013-02-05 09:32:00,
2013-02-05 04:42:00,20.0,20.0,-100.00,North,0,1.0,2.0,99,-99.99,,,-99.99,,2013-02-05 09:42:00,
2013-02-05 04:52:00,20.0,20.0,-100.00,ESE,115,0.0,3.0,99,-99.99,,,-99.99,,2013-02-05 09:52:00,
2013-02-05 05:02:00,21.0,21.0,-100.00,ESE,110,0.0,4.0,99,-99.99,,,-99.99,,2013-02-05 10:02:00,
2013-02-05 05:11:00,21.0,21.0,-100.00,ESE,120,2.0,3.0,99,-99.99,,,-99.99,,2013-02-05 10:11:00,
2013-02-05 05:21:00,21.0,21.0,-100.00,ESE,105,2.0,4.0,99,-99.99,,,-99.99,,2013-02-05 10:21:00,
2013-02-05 05:32:00,21.0,21.0,-100.00,East,80,1.0,4.0,99,-99.99,,,-99.99,,2013-02-05 10:32:00,
2013-02-05 05:42:00,21.0,21.0,-100.00,ENE,70,1.0,4.0,99,-99.99,,,-99.99,,2013-02-05 10:42:00,
2013-02-05 05:52:00,21.0,21.0,-100.00,ENE,75,2.0,4.0,99,-99.99,,,-99.99,,2013-02-05 10:52:00,
2013-02-05 06:01:00,21.0,21.0,-100.00,East,90,1.0,4.0,99,-99.99,,,-99.99,,2013-02-05 11:01:00,
2013-02-05 06:11:00,21.0,21.0,-100.00,NE,35,2.0,4.0,99,-99.99,,,-99.99,,2013-02-05 11:11:00,
2013-02-05 06:22:00,20.0,20.0,-100.00,North,10,1.0,2.0,99,-99.99,,,-99.99,,2013-02-05 11:22:00,
2013-02-05 06:32:00,20.0,20.0,-100.00,NNE,30,0.0,2.0,99,-99.99,,,-99.99,,2013-02-05 11:32:00,
2013-02-05 06:42:00,21.0,21.0,-100.00,SE,135,0.0,1.0,99,-99.99,,,-99.99,,2013-02-05 11:42:00,
2013-02-05 06:52:00,20.0,20.0,-100.00,ENE,75,0.0,2.0,99,-99.99,,,-99.99,,2013-02-05 11:52:00,
2013-02-05 07:02:00,20.0,20.0,-100.00,SE,125,1.0,3.0,99,-99.99,,,-99.99,,2013-02-05 12:02:00,
2013-02-05 07:12:00,20.0,20.0,-100.00,NE,45,1.0,3.0,99,-99.99,,,-99.99,,2013-02-05 12:12:00,
2013-02-05 07:22:00,20.0,20.0,-100.00,SW,225,1.0,2.0,99,-99.99,,,-99.99,,2013-02-05 12:22:00,
2013-02-05 07:32:00,20.0,20.0,-100.00,North,350,1.0,2.0,99,-99.99,,,-99.99,,2013-02-05 12:32:00,
2013-02-05 07:42:00,20.0,20.0,-100.00,North,350,1.0,2.0,99,-99.99,,,-99.99,,2013-02-05 12:42:00,
2013-02-05 07:52:00,20.0,20.0,-100.00,North,0,1.0,2.0,100,-99.99,,,-99.99,,2013-02-05 12:52:00,
2013-02-05 08:02:00,20.0,20.0,-100.00,NNW,345,1.0,2.0,100,-99.99,,,-99.99,,2013-02-05 13:02:00,
2013-02-05 08:12:00,21.0,21.0,-100.00,NNW,340,1.0,2.0,99,-99.99,,,-99.99,,2013-02-05 13:12:00,
2013-02-05 08:22:00,21.0,21.0,-100.00,WNW,290,3.0,5.0,100,-99.99,,,-99.99,,2013-02-05 13:22:00,
2013-02-05 08:32:00,21.0,21.0,-100.00,West,275,3.0,4.0,99,-99.99,,,-99.99,,2013-02-05 13:32:00,
2013-02-05 08:42:00,21.0,21.0,-100.00,WNW,290,2.0,4.0,99,-99.99,,,-99.99,,2013-02-05 13:42:00,
2013-02-05 08:52:00,21.0,21.0,-100.00,West,270,2.0,5.0,99,-99.99,,,-99.99,,2013-02-05 13:52:00,
2013-02-05 09:01:00,22.0,22.0,-100.00,West,265,1.0,3.0,99,-99.99,,,-99.99,,2013-02-05 14:01:00,
2013-02-05 09:12:00,22.0,22.0,-100.00,West,280,3.0,4.0,99,-99.99,,,-99.99,,2013-02-05 14:12:00,
2013-02-05 09:21:00,22.0,22.0,-100.00,West,275,2.0,5.0,99,-99.99,,,-99.99,,2013-02-05 14:21:00,
2013-02-05 09:32:00,22.0,22.0,-100.00,West,280,4.0,7.0,100,-99.99,,,-99.99,,2013-02-05 14:32:00,
2013-02-05 09:42:00,22.0,22.0,-100.00,West,280,5.0,8.0,99,-99.99,,,-99.99,,2013-02-05 14:42:00,
2013-02-05 09:52:00,22.0,22.0,-100.00,West,265,4.0,9.0,100,-99.99,,,-99.99,,2013-02-05 14:52:00,
2013-02-05 10:02:00,22.0,22.0,-100.00,West,265,4.0,9.0,100,-99.99,,,-99.99,,2013-02-05 15:02:00,
2013-02-05 10:11:00,22.0,22.0,-100.00,West,265,4.0,9.0,100,-99.99,,,-99.99,,2013-02-05 15:11:00,
2013-02-05 10:21:00,23.0,23.0,-100.00,WSW,250,2.0,6.0,99,-99.99,,,-99.99,,2013-02-05 15:21:00,
2013-02-05 10:32:00,23.0,23.0,-100.00,WSW,240,3.0,7.0,98,-99.99,,,-99.99,,2013-02-05 15:32:00,
2013-02-05 10:42:00,23.0,23.0,-100.00,SSW,200,4.0,6.0,98,-99.99,,,-99.99,,2013-02-05 15:42:00,
2013-02-05 10:52:00,23.0,23.0,-100.00,SW,215,3.0,7.0,96,-99.99,,,-99.99,,2013-02-05 15:52:00,
2013-02-05 11:01:00,23.0,23.0,-100.00,SW,215,3.0,7.0,96,-99.99,,,-99.99,,2013-02-05 16:01:00,
2013-02-05 11:11:00,24.0,23.0,-100.00,SSW,205,5.0,7.0,95,-99.99,,,-99.99,,2013-02-05 16:11:00,
2013-02-05 11:22:00,25.0,23.0,-100.00,SSW,210,5.0,8.0,94,-99.99,,,-99.99,,2013-02-05 16:22:00,
2013-02-05 11:32:00,25.0,23.0,-100.00,SW,220,6.0,8.0,92,-99.99,,,-99.99,,2013-02-05 16:32:00,
2013-02-05 11:42:00,25.0,23.0,-100.00,SW,225,7.0,10.0,91,-99.99,,,-99.99,,2013-02-05 16:42:00,
2013-02-05 11:52:00,25.0,23.0,-100.00,SSW,210,4.0,9.0,89,-99.99,,,-99.99,,2013-02-05 16:52:00,
2013-02-05 12:01:00,25.0,22.0,-100.00,SSW,195,6.0,10.0,88,-99.99,,,-99.99,,2013-02-05 17:01:00,
2013-02-05 12:11:00,26.0,23.0,-100.00,SSW,195,6.0,9.0,88,-99.99,,,-99.99,,2013-02-05 17:11:00,
2013-02-05 12:22:00,26.0,23.0,-100.00,South,185,9.0,12.0,88,-99.99,,,-99.99,,2013-02-05 17:22:00,
2013-02-05 12:32:00,27.0,24.0,-100.00,SSW,195,8.0,11.0,88,-99.99,,,-99.99,,2013-02-05 17:32:00,
2013-02-05 12:42:00,27.0,24.0,-100.00,South,190,9.0,11.0,86,-99.99,,,-99.99,,2013-02-05 17:42:00,
2013-02-05 12:52:00,27.0,23.0,-100.00,SW,235,9.0,13.0,85,-99.99,,,-99.99,,2013-02-05 17:52:00,
2013-02-05 13:02:00,28.0,24.0,-100.00,SW,225,9.0,13.0,83,-99.99,,,-99.99,,2013-02-05 18:02:00,
2013-02-05 13:11:00,28.0,23.0,-100.00,WSW,245,9.0,14.0,80,-99.99,,,-99.99,,2013-02-05 18:11:00,
2013-02-05 13:22:00,28.0,23.0,-100.00,South,185,6.0,11.0,79,-99.99,,,-99.99,,2013-02-05 18:22:00,
2013-02-05 13:32:00,28.0,22.0,-100.00,SW,215,7.0,14.0,79,-99.99,,,-99.99,,2013-02-05 18:32:00,
2013-02-05 13:42:00,28.0,22.0,-100.00,SW,215,9.0,14.0,78,-99.99,,,-99.99,,2013-02-05 18:42:00,
2013-02-05 13:52:00,28.0,22.0,-100.00,SW,215,6.0,12.0,77,-99.99,,,-99.99,,2013-02-05 18:52:00,
2013-02-05 14:02:00,28.0,22.0,-100.00,SW,225,6.0,12.0,76,-99.99,,,-99.99,,2013-02-05 19:02:00,
2013-02-05 14:11:00,28.0,22.0,-100.00,WSW,245,7.0,12.0,76,-99.99,,,-99.99,,2013-02-05 19:11:00,
2013-02-05 14:22:00,28.0,22.0,-100.00,SW,230,9.0,14.0,76,-99.99,,,-99.99,,2013-02-05 19:22:00,
2013-02-05 14:32:00,29.0,22.0,-100.00,SW,215,6.0,15.0,75,-99.99,,,-99.99,,2013-02-05 19:32:00,
2013-02-05 14:42:00,28.0,21.0,-100.00,SSW,195,8.0,13.0,75,-99.99,,,-99.99,,2013-02-05 19:42:00,
2013-02-05 14:52:00,29.0,23.0,-100.00,SW,220,4.0,9.0,77,-99.99,,,-99.99,,2013-02-05 19:52:00,
2013-02-05 15:02:00,28.0,22.0,-100.00,SSW,195,7.0,11.0,77,-99.99,,,-99.99,,2013-02-05 20:02:00,
2013-02-05 15:11:00,28.0,22.0,-100.00,SSW,200,9.0,11.0,79,-99.99,,,-99.99,,2013-02-05 20:11:00,
2013-02-05 15:21:00,28.0,23.0,-100.00,SW,220,6.0,9.0,80,-99.99,,,-99.99,,2013-02-05 20:21:00,
2013-02-05 15:32:00,28.0,23.0,-100.00,South,190,6.0,9.0,81,-99.99,,,-99.99,,2013-02-05 20:32:00,
2013-02-05 15:42:00,28.0,22.0,-100.00,SW,225,6.0,11.0,79,-99.99,,,-99.99,,2013-02-05 20:42:00,
2013-02-05 15:52:00,28.0,22.0,-100.00,SSW,210,6.0,14.0,77,-99.99,,,-99.99,,2013-02-05 20:52:00,
2013-02-05 16:02:00,28.0,22.0,-100.00,SSW,195,7.0,11.0,77,-99.99,,,-99.99,,2013-02-05 21:02:00,
2013-02-05 16:11:00,28.0,22.0,-100.00,SW,230,6.0,13.0,79,-99.99,,,-99.99,,2013-02-05 21:11:00,
2013-02-05 16:22:00,28.0,23.0,-100.00,SW,215,6.0,13.0,81,-99.99,,,-99.99,,2013-02-05 21:22:00,
2013-02-05 16:32:00,28.0,23.0,-100.00,SSW,205,7.0,11.0,82,-99.99,,,-99.99,,2013-02-05 21:32:00,
2013-02-05 16:42:00,27.0,23.0,-100.00,SSW,205,9.0,11.0,83,-99.99,,,-99.99,,2013-02-05 21:42:00,
2013-02-05 16:52:00,28.0,23.0,-100.00,SW,220,7.0,12.0,84,-99.99,,,-99.99,,2013-02-05 21:52:00,
2013-02-05 17:01:00,27.0,23.0,-100.00,SW,225,7.0,13.0,84,-99.99,,,-99.99,,2013-02-05 22:01:00,
2013-02-05 17:11:00,28.0,23.0,-100.00,SSW,195,5.0,11.0,84,-99.99,,,-99.99,,2013-02-05 22:11:00,
2013-02-05 17:22:00,28.0,23.0,-100.00,SSW,205,7.0,11.0,84,-99.99,,,-99.99,,2013-02-05 22:22:00,
2013-02-05 17:32:00,28.0,24.0,-100.00,SSW,200,6.0,11.0,84,-99.99,,,-99.99,,2013-02-05 22:32:00,
2013-02-05 17:42:00,28.0,24.0,-100.00,South,190,7.0,11.0,84,-99.99,,,-99.99,,2013-02-05 22:42:00,
2013-02-05 17:51:00,28.0,24.0,-100.00,SSW,200,6.0,11.0,85,-99.99,,,-99.99,,2013-02-05 22:51:00,
2013-02-05 18:02:00,28.0,24.0,-100.00,SSW,210,7.0,9.0,85,-99.99,,,-99.99,,2013-02-05 23:02:00,
2013-02-05 18:11:00,28.0,24.0,-100.00,SW,225,3.0,10.0,86,-99.99,,,-99.99,,2013-02-05 23:11:00,
2013-02-05 18:22:00,27.0,24.0,-100.00,WSW,250,2.0,6.0,87,-99.99,,,-99.99,,2013-02-05 23:22:00,
2013-02-05 18:32:00,27.0,24.0,-100.00,WSW,240,2.0,7.0,89,-99.99,,,-99.99,,2013-02-05 23:32:00,
2013-02-05 18:42:00,27.0,24.0,-100.00,WSW,240,2.0,7.0,89,-99.99,,,-99.99,,2013-02-05 23:42:00,
2013-02-05 18:52:00,27.0,25.0,-100.00,SW,235,5.0,8.0,92,-99.99,,,-99.99,,2013-02-05 23:52:00,
2013-02-05 19:02:00,27.0,26.0,-100.00,SW,225,6.0,10.0,93,-99.99,,,-99.99,,2013-02-06 00:02:00,
2013-02-05 19:12:00,27.0,26.0,-100.00,SW,220,6.0,9.0,94,-99.99,,,-99.99,,2013-02-06 00:12:00,
2013-02-05 19:22:00,27.0,26.0,-100.00,SW,225,6.0,11.0,95,-99.99,,,-99.99,,2013-02-06 00:22:00,
2013-02-05 19:32:00,27.0,26.0,-100.00,SW,225,6.0,11.0,95,-99.99,,,-99.99,,2013-02-06 00:32:00,
2013-02-05 19:42:00,27.0,26.0,-100.00,SW,225,6.0,11.0,95,-99.99,,,-99.99,,2013-02-06 00:42:00,
2013-02-05 19:52:00,26.0,26.0,-100.00,SW,220,3.0,10.0,97,-99.99,,,-99.99,,2013-02-06 00:52:00,
2013-02-05 20:02:00,27.0,26.0,-100.00,SW,225,6.0,8.0,98,-99.99,,,-99.99,,2013-02-06 01:02:00,
2013-02-05 20:12:00,27.0,26.0,-100.00,SW,215,4.0,8.0,98,-99.99,,,-99.99,,2013-02-06 01:12:00,
2013-02-05 20:22:00,27.0,26.0,-100.00,SW,225,4.0,7.0,98,-99.99,,,-99.99,,2013-02-06 01:22:00,
2013-02-05 20:32:00,27.0,27.0,-100.00,SW,230,5.0,9.0,98,-99.99,,,-99.99,,2013-02-06 01:32:00,
2013-02-05 20:42:00,27.0,27.0,-100.00,SSW,200,7.0,10.0,98,-99.99,,,-99.99,,2013-02-06 01:42:00,
2013-02-05 20:52:00,27.0,27.0,-100.00,SW,225,7.0,9.0,98,-99.99,,,-99.99,,2013-02-06 01:52:00,
2013-02-05 21:02:00,27.0,27.0,-100.00,SW,225,7.0,9.0,98,-99.99,,,-99.99,,2013-02-06 02:02:00,
2013-02-05 21:11:00,27.0,27.0,-100.00,SW,215,5.0,12.0,99,-99.99,,,-99.99,,2013-02-06 02:11:00,
2013-02-05 21:22:00,28.0,28.0,-100.00,SW,220,6.0,11.0,99,-99.99,,,-99.99,,2013-02-06 02:22:00,
2013-02-05 21:32:00,28.0,28.0,-100.00,SW,220,4.0,9.0,99,-99.99,,,-99.99,,2013-02-06 02:32:00,
2013-02-05 21:42:00,28.0,28.0,-100.00,WSW,240,4.0,8.0,99,-99.99,,,-99.99,,2013-02-06 02:42:00,
2013-02-05 21:52:00,28.0,28.0,-100.00,SW,235,4.0,9.0,99,-99.99,,,-99.99,,2013-02-06 02:52:00,
2013-02-05 22:03:00,28.0,28.0,-100.00,WSW,255,4.0,9.0,99,-99.99,,,-99.99,,2013-02-06 03:03:00,
2013-02-05 22:12:00,28.0,28.0,-100.00,SW,215,3.0,9.0,99,-99.99,,,-99.99,,2013-02-06 03:12:00,
2013-02-05 22:22:00,28.0,28.0,-100.00,SW,225,6.0,10.0,99,-99.99,,,-99.99,,2013-02-06 03:22:00,
2013-02-05 22:32:00,28.0,28.0,-100.00,WSW,250,4.0,7.0,100,-99.99,,,-99.99,,2013-02-06 03:32:00,
2013-02-05 22:42:00,28.0,28.0,-100.00,WSW,240,4.0,7.0,99,-99.99,,,-99.99,,2013-02-06 03:42:00,
2013-02-05 22:52:00,28.0,28.0,-100.00,WSW,250,4.0,6.0,100,-99.99,,,-99.99,,2013-02-06 03:52:00,
2013-02-05 23:02:00,28.0,28.0,-100.00,WSW,240,4.0,6.0,99,-99.99,,,-99.99,,2013-02-06 04:02:00,
2013-02-05 23:11:00,28.0,28.0,-100.00,WSW,240,4.0,6.0,99,-99.99,,,-99.99,,2013-02-06 04:11:00,
2013-02-05 23:22:00,28.0,28.0,-100.00,WSW,255,6.0,7.0,99,-99.99,,,-99.99,,2013-02-06 04:22:00,
2013-02-05 23:32:00,29.0,29.0,-100.00,WSW,255,5.0,9.0,99,-99.99,,,-99.99,,2013-02-06 04:32:00,
2013-02-05 23:42:00,29.0,29.0,-100.00,WSW,245,6.0,9.0,99,-99.99,,,-99.99,,2013-02-06 04:42:00,
2013-02-05 23:52:00,29.0,29.0,-100.00,West,260,4.0,9.0,99,-99.99,,,-99.99,,2013-02-06 04:52:00,